createdAt,value
2019-05-17T00:00:16.761Z,36.47
2019-05-17T00:02:51.608Z,36.28
2019-05-17T00:05:26.608Z,35.78
2019-05-17T00:08:01.423Z,36.58
2019-05-17T00:10:37.675Z,37.23
2019-05-17T00:13:14.602Z,35.58
2019-05-17T00:15:49.267Z,36.20
2019-05-17T00:18:26.319Z,36.17
2019-05-17T00:21:00.448Z,36.53
2019-05-17T00:23:37.343Z,36.33
2019-05-17T00:26:11.860Z,35.88
2019-05-17T00:28:47.025Z,36.33
2019-05-17T00:31:23.212Z,36.17
2019-05-17T00:33:58.053Z,35.97
2019-05-17T00:36:32.820Z,35.80
2019-05-17T00:39:08.000Z,35.80
2019-05-17T00:41:42.811Z,34.70
2019-05-17T00:44:17.628Z,35.47
2019-05-17T00:46:52.360Z,36.27
2019-05-17T00:49:27.310Z,35.30
2019-05-17T00:52:02.041Z,35.80
2019-05-17T00:54:36.981Z,35.50
2019-05-17T00:57:11.784Z,35.80
2019-05-17T00:59:47.577Z,35.83
2019-05-17T01:02:22.541Z,35.63
2019-05-17T01:04:57.355Z,36.37
2019-05-17T01:07:32.328Z,36.17
2019-05-17T01:10:08.983Z,35.77
2019-05-17T01:12:43.726Z,35.73
2019-05-17T01:15:19.061Z,39.73
2019-05-17T01:17:56.181Z,35.57
2019-05-17T01:20:30.282Z,36.00
2019-05-17T01:23:07.482Z,36.33
2019-05-17T01:25:41.684Z,35.90
2019-05-17T01:28:16.492Z,36.13
2019-05-17T01:30:51.247Z,36.10
2019-05-17T01:33:26.528Z,35.97
2019-05-17T01:36:01.384Z,35.90
2019-05-17T01:38:37.779Z,35.67
2019-05-17T01:41:12.663Z,36.13
2019-05-17T01:43:47.581Z,35.50
2019-05-17T01:46:22.518Z,36.33
2019-05-17T01:48:57.850Z,35.60
2019-05-17T01:51:32.851Z,36.23
2019-05-17T01:54:07.743Z,35.97
2019-05-17T01:56:42.533Z,36.10
2019-05-17T01:59:17.484Z,35.60
2019-05-17T02:01:56.426Z,35.27
2019-05-17T02:04:30.635Z,35.67
2019-05-17T02:07:06.855Z,35.83
2019-05-17T02:09:42.203Z,36.23
2019-05-17T02:12:17.324Z,35.73
2019-05-17T02:14:52.292Z,35.30
2019-05-17T02:17:27.035Z,35.13
2019-05-17T02:20:01.840Z,36.47
2019-05-17T02:22:36.946Z,35.63
2019-05-17T02:25:13.085Z,35.43
2019-05-17T02:27:47.877Z,36.17
2019-05-17T02:30:23.475Z,35.53
2019-05-17T02:32:59.016Z,35.33
2019-05-17T02:35:34.127Z,35.80
2019-05-17T02:38:08.954Z,35.67
2019-05-17T02:40:43.757Z,35.77
2019-05-17T02:43:18.772Z,36.20
2019-05-17T02:45:53.613Z,36.63
2019-05-17T02:48:29.661Z,35.37
2019-05-17T02:51:04.565Z,36.00
2019-05-17T02:53:42.675Z,36.27
2019-05-17T02:56:16.061Z,36.20
2019-05-17T02:58:53.290Z,36.60
2019-05-17T03:01:27.427Z,35.47
2019-05-17T03:04:04.010Z,35.83
2019-05-17T03:06:38.978Z,36.37
2019-05-17T03:09:13.855Z,36.10
2019-05-17T03:11:48.701Z,35.77
2019-05-17T03:14:23.696Z,35.47
2019-05-17T03:16:58.452Z,35.70
2019-05-17T03:19:33.280Z,35.63
2019-05-17T03:22:08.225Z,35.37
2019-05-17T03:24:43.994Z,36.57
2019-05-17T03:27:19.153Z,36.10
2019-05-17T03:29:54.030Z,35.50
2019-05-17T03:32:35.480Z,36.07
2019-05-17T03:35:07.901Z,36.25
2019-05-17T03:37:43.707Z,35.93
2019-05-17T03:40:46.293Z,36.13
2019-05-17T03:42:55.490Z,36.27
2019-05-17T03:45:33.604Z,36.20
2019-05-17T03:48:06.992Z,36.00
2019-05-17T03:50:43.642Z,37.90
2019-05-17T03:53:18.457Z,36.77
2019-05-17T03:55:53.933Z,36.97
2019-05-17T03:58:33.022Z,37.47
2019-05-17T04:01:05.793Z,37.23
2019-05-17T04:03:43.538Z,36.80
2019-05-17T04:06:17.075Z,35.73
2019-05-17T04:08:52.803Z,36.80
2019-05-17T04:11:32.896Z,36.37
2019-05-17T04:14:04.488Z,36.13
2019-05-17T04:16:42.604Z,36.37
2019-05-17T04:19:15.962Z,36.53
2019-05-17T04:21:53.584Z,36.87
2019-05-17T04:24:27.577Z,37.10
2019-05-17T04:27:03.566Z,37.33
2019-05-17T04:29:38.819Z,36.80
2019-05-17T04:32:13.641Z,36.53
2019-05-17T04:34:48.435Z,37.60
2019-05-17T04:37:24.252Z,37.70
2019-05-17T04:39:59.092Z,36.57
2019-05-17T04:42:33.980Z,38.13
2019-05-17T04:45:12.488Z,38.37
2019-05-17T04:47:46.411Z,37.47
2019-05-17T04:50:23.127Z,36.80
2019-05-17T04:52:58.260Z,37.47
2019-05-17T04:55:36.648Z,37.57
2019-05-17T04:58:13.691Z,37.10
2019-05-17T05:00:47.899Z,37.87
2019-05-17T05:03:23.402Z,37.83
2019-05-17T05:05:58.402Z,36.87
2019-05-17T05:08:33.430Z,37.43
2019-05-17T05:11:12.445Z,37.23
2019-05-17T05:13:45.818Z,38.20
2019-05-17T05:16:22.561Z,38.03
2019-05-17T05:18:57.027Z,38.30
2019-05-17T05:21:32.453Z,38.10
2019-05-17T05:24:07.390Z,38.07
2019-05-17T05:26:42.571Z,38.77
2019-05-17T05:29:17.503Z,38.77
2019-05-17T05:31:53.273Z,37.80
2019-05-17T05:34:29.016Z,37.83
2019-05-17T05:37:03.909Z,40.13
2019-05-17T05:39:38.678Z,39.17
2019-05-17T05:42:14.482Z,38.37
2019-05-17T05:44:49.271Z,39.67
2019-05-17T05:47:24.083Z,39.40
2019-05-17T05:49:58.843Z,38.60
2019-05-17T05:52:33.615Z,38.57
2019-05-17T05:55:08.738Z,38.70
2019-05-17T05:57:43.491Z,39.90
2019-05-17T06:00:18.820Z,39.30
2019-05-17T06:02:53.647Z,40.10
2019-05-17T06:05:28.510Z,39.80
2019-05-17T06:08:04.479Z,39.60
2019-05-17T06:10:40.203Z,40.37
2019-05-17T06:13:15.771Z,40.70
2019-05-17T06:15:51.741Z,39.87
2019-05-17T06:18:26.659Z,39.83
2019-05-17T06:21:03.213Z,41.00
2019-05-17T06:23:38.115Z,40.50
2019-05-17T06:26:12.948Z,40.73
2019-05-17T06:29:06.935Z,41.23
2019-05-17T06:31:43.298Z,42.37
2019-05-17T06:34:18.410Z,41.37
2019-05-17T06:36:53.659Z,40.83
2019-05-17T06:39:28.419Z,40.40
2019-05-17T06:42:03.151Z,40.37
2019-05-17T06:44:38.997Z,40.57
2019-05-17T06:47:13.735Z,41.37
2019-05-17T06:49:50.550Z,40.37
2019-05-17T06:52:25.019Z,39.90
2019-05-17T06:55:02.892Z,41.57
2019-05-17T06:57:36.210Z,40.27
2019-05-17T07:00:18.557Z,40.73
2019-05-17T07:02:49.796Z,39.83
2019-05-17T07:05:29.381Z,38.97
2019-05-17T07:08:04.338Z,39.07
2019-05-17T07:10:39.833Z,38.87
2019-05-17T07:13:14.854Z,40.03
2019-05-17T07:15:50.993Z,39.70
2019-05-17T07:18:25.827Z,39.87
2019-05-17T07:21:03.380Z,39.20
2019-05-17T07:23:37.027Z,40.23
2019-05-17T07:26:12.176Z,41.53
2019-05-17T07:28:47.055Z,39.90
2019-05-17T07:31:23.272Z,41.50
2019-05-17T07:33:59.830Z,41.27
2019-05-17T07:36:34.835Z,40.40
2019-05-17T07:39:10.841Z,41.13
2019-05-17T07:41:45.742Z,41.33
2019-05-17T07:44:20.590Z,40.47
2019-05-17T07:46:55.463Z,40.20
2019-05-17T07:49:30.360Z,41.23
2019-05-17T07:52:05.263Z,40.33
2019-05-17T07:54:40.068Z,41.80
2019-05-17T07:57:14.839Z,40.73
2019-05-17T07:59:50.752Z,40.57
2019-05-17T08:02:25.721Z,40.03
2019-05-17T08:05:00.764Z,39.43
2019-05-17T08:07:35.827Z,40.37
2019-05-17T08:10:11.368Z,41.57
2019-05-17T08:12:46.271Z,40.90
2019-05-17T08:15:21.170Z,41.27
2019-05-17T08:17:58.632Z,40.87
2019-05-17T08:20:32.448Z,40.57
2019-05-17T08:23:07.283Z,40.87
2019-05-17T08:25:52.801Z,41.33
2019-05-17T08:28:18.571Z,41.40
2019-05-17T08:30:53.411Z,40.87
2019-05-17T08:33:29.862Z,40.50
2019-05-17T08:36:04.855Z,41.30
2019-05-17T08:38:39.695Z,42.23
2019-05-17T08:41:14.435Z,41.87
2019-05-17T08:43:51.417Z,41.43
2019-05-17T08:46:25.660Z,40.75
2019-05-17T08:49:00.522Z,40.10
2019-05-17T08:51:35.306Z,39.55
2019-05-17T08:54:10.487Z,42.77
2019-05-17T08:56:45.456Z,41.30
2019-05-17T08:59:20.297Z,41.53
2019-05-17T09:01:55.107Z,41.70
2019-05-17T09:04:29.937Z,42.47
2019-05-17T09:07:04.831Z,41.88
2019-05-17T09:09:39.621Z,40.80
2019-05-17T09:12:14.491Z,41.42
2019-05-17T09:14:49.701Z,41.07
2019-05-17T09:17:24.541Z,41.83
2019-05-17T09:20:00.884Z,41.35
2019-05-17T09:22:35.739Z,41.43
2019-05-17T09:25:15.744Z,40.90
2019-05-17T09:27:50.085Z,42.43
2019-05-17T09:30:25.691Z,41.73
2019-05-17T09:33:00.526Z,41.90
2019-05-17T09:35:35.435Z,41.42
2019-05-17T09:38:10.472Z,43.52
2019-05-17T09:40:45.524Z,41.90
2019-05-17T09:43:20.680Z,43.25
2019-05-17T09:45:55.784Z,42.70
2019-05-17T09:48:30.926Z,42.98
2019-05-17T09:51:05.854Z,42.13
2019-05-17T09:53:40.763Z,42.75
2019-05-17T09:56:15.588Z,42.80
2019-05-17T09:58:50.562Z,42.73
2019-05-17T10:01:25.488Z,42.83
2019-05-17T10:04:00.243Z,43.55
2019-05-17T10:06:35.164Z,43.92
2019-05-17T10:09:10.007Z,43.60
2019-05-17T10:11:44.767Z,43.83
2019-05-17T10:14:27.693Z,43.78
2019-05-17T10:16:55.975Z,43.48
2019-05-17T10:19:30.729Z,43.35
2019-05-17T10:22:06.471Z,44.33
2019-05-17T10:24:42.547Z,43.30
2019-05-17T10:27:19.527Z,43.17
2019-05-17T10:29:54.207Z,43.33
2019-05-17T10:32:30.926Z,43.02
2019-05-17T10:35:06.391Z,42.36
2019-05-17T10:37:41.220Z,43.15
2019-05-17T10:40:16.531Z,42.85
2019-05-17T10:42:51.275Z,41.95
2019-05-17T10:45:26.117Z,43.28
2019-05-17T10:48:01.007Z,45.25
2019-05-17T10:50:36.386Z,42.83
2019-05-17T10:53:11.287Z,43.98
2019-05-17T10:55:46.047Z,44.30
2019-05-17T10:58:21.380Z,44.20
2019-05-17T11:00:56.351Z,42.65
2019-05-17T11:03:31.175Z,43.00
2019-05-17T11:06:06.088Z,44.00
2019-05-17T11:08:40.906Z,44.23
2019-05-17T11:11:15.763Z,42.65
2019-05-17T11:13:53.015Z,43.87
2019-05-17T11:16:27.119Z,43.20
2019-05-17T11:19:01.982Z,43.55
2019-05-17T11:21:36.847Z,42.00
2019-05-17T11:24:11.662Z,42.43
2019-05-17T11:26:46.495Z,45.05
2019-05-17T11:29:21.363Z,44.70
2019-05-17T11:31:56.235Z,43.38
2019-05-17T11:34:31.059Z,44.13
2019-05-17T11:37:05.881Z,43.63
2019-05-17T11:39:40.695Z,44.27
2019-05-17T11:42:15.583Z,43.20
2019-05-17T11:44:50.448Z,44.00
2019-05-17T11:47:26.215Z,43.33
2019-05-17T11:50:01.043Z,44.08
2019-05-17T11:52:35.871Z,43.02
2019-05-17T11:55:10.779Z,43.33
2019-05-17T11:57:45.590Z,42.80
2019-05-17T12:00:20.881Z,41.97
2019-05-17T12:02:55.647Z,41.53
2019-05-17T12:05:31.536Z,41.77
2019-05-17T12:08:08.687Z,42.20
2019-05-17T12:10:43.208Z,42.25
2019-05-17T12:13:18.100Z,41.98
2019-05-17T12:15:52.868Z,41.35
2019-05-17T12:18:27.609Z,40.92
2019-05-17T12:21:02.474Z,40.83
2019-05-17T12:23:37.307Z,41.50
2019-05-17T12:26:12.143Z,42.98
2019-05-17T12:28:46.915Z,41.65
2019-05-17T12:31:21.832Z,39.80
2019-05-17T12:33:56.666Z,39.13
2019-05-17T12:36:31.465Z,39.80
2019-05-17T12:39:07.312Z,39.33
2019-05-17T12:41:42.121Z,40.08
2019-05-17T12:44:16.939Z,39.60
2019-05-17T12:46:51.840Z,39.98
2019-05-17T12:49:26.665Z,39.58
2019-05-17T12:52:01.652Z,38.53
2019-05-17T12:54:36.559Z,38.67
2019-05-17T12:57:11.334Z,41.10
2019-05-17T12:59:46.076Z,39.13
2019-05-17T13:02:20.859Z,40.43
2019-05-17T13:04:55.760Z,39.13
2019-05-17T13:07:30.552Z,40.45
2019-05-17T13:10:07.220Z,40.05
2019-05-17T13:12:42.951Z,39.67
2019-05-17T13:15:17.799Z,39.07
2019-05-17T13:17:53.660Z,39.75
2019-05-17T13:20:28.539Z,40.28
2019-05-17T13:23:03.621Z,39.03
2019-05-17T13:25:38.527Z,38.98
2019-05-17T13:28:13.311Z,38.92
2019-05-17T13:30:48.079Z,40.45
2019-05-17T13:33:23.011Z,40.35
2019-05-17T13:35:57.857Z,40.10
2019-05-17T13:38:32.680Z,40.48
2019-05-17T13:41:07.589Z,39.78
2019-05-17T13:43:42.466Z,40.03
2019-05-17T13:46:31.778Z,39.30
2019-05-17T13:48:53.739Z,40.00
2019-05-17T13:51:28.659Z,40.33
2019-05-17T13:54:03.487Z,39.63
2019-05-17T13:56:38.418Z,39.70
2019-05-17T13:59:13.248Z,37.70
2019-05-17T14:01:49.069Z,37.73
2019-05-17T14:04:23.803Z,37.45
2019-05-17T14:06:58.743Z,37.75
2019-05-17T14:09:33.638Z,37.55
2019-05-17T14:12:08.547Z,38.42
2019-05-17T14:14:43.307Z,37.80
2019-05-17T14:17:18.138Z,37.98
2019-05-17T14:19:53.115Z,37.30
2019-05-17T14:22:28.046Z,37.60
2019-05-17T14:25:02.822Z,37.55
2019-05-17T14:27:37.827Z,37.78
2019-05-17T14:30:13.033Z,37.97
2019-05-17T14:32:47.872Z,37.85
2019-05-17T14:35:22.696Z,37.90
2019-05-17T14:37:57.695Z,38.28
2019-05-17T14:41:04.293Z,37.98
2019-05-17T14:43:09.026Z,38.42
2019-05-17T14:45:43.774Z,37.85
2019-05-17T14:48:18.532Z,37.75
2019-05-17T14:50:53.289Z,38.10
2019-05-17T14:53:28.099Z,38.23
2019-05-17T14:56:02.871Z,37.98
2019-05-17T14:58:37.726Z,37.45
2019-05-17T15:01:12.663Z,37.73
2019-05-17T15:03:47.618Z,37.50
2019-05-17T15:06:22.488Z,37.83
2019-05-17T15:08:57.252Z,37.73
2019-05-17T15:11:32.016Z,37.93
2019-05-17T15:14:06.786Z,37.80
2019-05-17T15:16:41.601Z,38.50
2019-05-17T15:19:16.519Z,39.33
2019-05-17T15:21:51.287Z,39.00
2019-05-17T15:24:26.790Z,38.45
2019-05-17T15:27:05.998Z,38.88
2019-05-17T15:29:38.187Z,38.55
2019-05-17T15:32:13.022Z,38.63
2019-05-17T15:34:47.999Z,38.17
2019-05-17T15:37:22.801Z,38.42
2019-05-17T15:39:57.695Z,37.98
2019-05-17T15:42:43.773Z,38.80
2019-05-17T15:45:10.168Z,37.83
2019-05-17T15:47:45.238Z,38.10
2019-05-17T15:50:20.291Z,38.15
2019-05-17T15:52:55.141Z,38.80
2019-05-17T15:55:30.213Z,38.78
2019-05-17T15:58:05.255Z,38.63
2019-05-17T16:00:40.153Z,38.50
2019-05-17T16:03:15.008Z,38.85
2019-05-17T16:05:49.925Z,38.88
2019-05-17T16:08:24.673Z,37.75
2019-05-17T16:10:59.438Z,39.20
2019-05-17T16:13:34.235Z,38.70
2019-05-17T16:16:09.005Z,38.65
2019-05-17T16:18:44.733Z,39.45
2019-05-17T16:21:19.563Z,39.18
2019-05-17T16:23:54.393Z,38.90
2019-05-17T16:26:29.251Z,39.23
2019-05-17T16:29:11.025Z,39.67
2019-05-17T16:31:45.826Z,40.12
2019-05-17T16:34:20.692Z,59.63
2019-05-17T16:36:55.594Z,39.92
2019-05-17T16:39:34.707Z,39.38
2019-05-17T16:42:10.732Z,39.65
2019-05-17T16:44:45.680Z,39.20
2019-05-17T16:47:32.121Z,39.78
2019-05-17T16:50:11.488Z,40.58
2019-05-17T16:52:46.299Z,40.20
2019-05-17T16:55:21.127Z,40.60
2019-05-17T16:57:55.871Z,39.60
2019-05-17T17:00:41.292Z,40.08
2019-05-17T17:03:21.453Z,41.00
2019-05-17T17:05:56.623Z,41.00
2019-05-17T17:08:37.753Z,39.38
2019-05-17T17:11:21.307Z,39.58
2019-05-17T17:13:58.098Z,39.30
2019-05-17T17:16:42.971Z,39.75
2019-05-17T17:19:25.865Z,39.65
2019-05-17T17:22:07.884Z,39.27
2019-05-17T17:24:43.536Z,39.67
2019-05-17T17:27:18.391Z,39.35
2019-05-17T17:29:53.327Z,39.25
2019-05-17T17:32:28.120Z,39.88
2019-05-17T17:35:03.252Z,39.75
2019-05-17T17:37:38.254Z,39.50
2019-05-17T17:40:14.795Z,39.80
2019-05-17T17:42:49.707Z,40.15
2019-05-17T17:45:27.279Z,40.10
2019-05-17T17:48:02.095Z,39.78
2019-05-17T17:50:36.876Z,39.90
2019-05-17T17:53:11.796Z,40.52
2019-05-17T17:55:46.721Z,40.88
2019-05-17T17:58:21.591Z,41.18
2019-05-17T18:00:56.432Z,40.65
2019-05-17T18:03:31.344Z,40.35
2019-05-17T18:06:06.383Z,39.48
2019-05-17T18:08:41.229Z,39.83
2019-05-17T18:11:16.137Z,40.30
2019-05-17T18:13:51.011Z,39.85
2019-05-17T18:16:26.419Z,39.95
2019-05-17T18:19:01.361Z,39.45
2019-05-17T18:21:39.612Z,40.00
2019-05-17T18:24:14.624Z,39.92
2019-05-17T18:26:49.502Z,38.78
2019-05-17T18:29:24.359Z,39.65
2019-05-17T18:31:59.184Z,39.63
2019-05-17T18:34:34.088Z,40.20
2019-05-17T18:37:08.995Z,39.95
2019-05-17T18:39:51.738Z,40.28
2019-05-17T18:42:30.266Z,40.70
2019-05-17T18:45:06.376Z,39.64
2019-05-17T18:47:41.241Z,40.30
2019-05-17T18:50:22.701Z,42.17
2019-05-17T18:53:16.454Z,44.38
2019-05-17T18:55:54.200Z,41.18
2019-05-17T18:58:39.309Z,41.30
2019-05-17T19:04:07.907Z,39.70
2019-05-17T19:06:43.061Z,39.40
2019-05-17T19:09:18.303Z,40.85
2019-05-17T19:11:59.906Z,41.37
2019-05-17T19:14:43.302Z,41.42
2019-05-17T19:17:17.380Z,38.98
2019-05-17T19:19:53.127Z,40.70
2019-05-17T19:22:29.251Z,43.08
2019-05-17T19:25:09.176Z,43.60
2019-05-17T19:27:45.413Z,41.98
2019-05-17T19:30:20.771Z,40.55
2019-05-17T19:32:56.619Z,40.80
2019-05-17T19:35:31.603Z,40.08
2019-05-17T19:38:06.517Z,39.98
2019-05-17T19:40:41.395Z,40.20
2019-05-17T19:43:16.643Z,39.92
2019-05-17T19:45:51.478Z,39.65
2019-05-17T19:48:26.356Z,39.67
2019-05-17T19:51:01.273Z,39.20
2019-05-17T19:53:36.110Z,38.55
2019-05-17T19:56:10.963Z,39.53
2019-05-17T19:58:45.787Z,38.85
2019-05-17T20:01:20.695Z,38.60
2019-05-17T20:03:55.503Z,39.58
2019-05-17T20:06:30.587Z,39.23
2019-05-17T20:09:06.673Z,38.13
2019-05-17T20:11:41.733Z,38.30
2019-05-17T20:14:17.510Z,38.50
2019-05-17T20:16:52.275Z,39.27
2019-05-17T20:19:27.227Z,39.73
2019-05-17T20:22:02.087Z,39.40
2019-05-17T20:24:37.071Z,41.40
2019-05-17T20:27:11.961Z,42.17
2019-05-17T20:29:46.788Z,41.73
2019-05-17T20:32:21.691Z,40.28
2019-05-17T20:34:56.615Z,40.50
2019-05-17T20:37:31.549Z,40.48
2019-05-17T20:40:07.655Z,41.00
2019-05-17T20:42:42.469Z,42.90
2019-05-17T20:45:32.171Z,43.10
2019-05-17T20:47:54.575Z,43.02
2019-05-17T20:50:29.479Z,42.25
2019-05-17T20:53:18.013Z,42.25
2019-05-17T20:55:40.867Z,41.75
2019-05-17T20:58:15.702Z,42.05
2019-05-17T21:00:50.625Z,40.17
2019-05-17T21:03:27.003Z,39.33
2019-05-17T21:06:01.816Z,40.00
2019-05-17T21:08:45.587Z,39.10
2019-05-17T21:11:13.104Z,39.92
2019-05-17T21:13:47.871Z,39.30
2019-05-17T21:16:22.627Z,39.30
2019-05-17T21:18:57.473Z,38.92
2019-05-17T21:21:32.227Z,37.98
2019-05-17T21:24:07.154Z,38.55
2019-05-17T21:26:41.904Z,38.83
2019-05-17T21:29:16.750Z,38.55
2019-05-17T21:31:51.522Z,39.20
2019-05-17T21:34:26.359Z,38.00
2019-05-17T21:37:01.094Z,38.35
2019-05-17T21:39:35.865Z,37.58
2019-05-17T21:42:10.623Z,37.85
2019-05-17T21:44:45.467Z,38.75
2019-05-17T21:47:20.387Z,37.75
2019-05-17T21:49:55.138Z,37.73
2019-05-17T21:52:29.899Z,37.63
2019-05-17T21:55:04.996Z,38.67
2019-05-17T21:57:39.919Z,38.17
2019-05-17T22:00:23.031Z,38.47
2019-05-17T22:02:59.423Z,38.48
2019-05-17T22:05:34.171Z,37.85
2019-05-17T22:08:09.187Z,38.13
2019-05-17T22:10:43.932Z,38.85
2019-05-17T22:13:18.769Z,37.88
2019-05-17T22:15:53.676Z,38.58
2019-05-17T22:18:28.587Z,41.83
2019-05-17T22:21:03.541Z,41.83
2019-05-17T22:23:38.494Z,39.18
2019-05-17T22:26:13.395Z,44.77
2019-05-17T22:28:48.240Z,41.48
2019-05-17T22:31:23.163Z,40.95
2019-05-17T22:33:57.916Z,42.08
2019-05-17T22:36:32.730Z,42.13
2019-05-17T22:39:07.946Z,40.33
2019-05-17T22:41:42.694Z,40.80
2019-05-17T22:44:17.448Z,39.98
2019-05-17T22:46:52.199Z,40.48
2019-05-17T22:49:26.963Z,40.67
2019-05-17T22:52:01.708Z,40.28
2019-05-17T22:54:36.476Z,42.05
2019-05-17T22:57:11.327Z,40.98
2019-05-17T22:59:46.096Z,40.12
2019-05-17T23:02:20.919Z,39.50
2019-05-17T23:04:55.751Z,40.12
2019-05-17T23:07:30.520Z,39.73
2019-05-17T23:10:06.559Z,40.20
2019-05-17T23:12:41.397Z,40.43
2019-05-17T23:15:16.311Z,40.08
2019-05-17T23:17:51.063Z,39.53
2019-05-17T23:20:25.888Z,40.30
2019-05-17T23:23:00.635Z,40.17
2019-05-17T23:25:35.475Z,40.23
2019-05-17T23:28:10.215Z,40.00
2019-05-17T23:30:45.062Z,39.55
2019-05-17T23:33:19.882Z,39.85
2019-05-17T23:35:54.815Z,39.95
2019-05-17T23:38:29.559Z,40.20
2019-05-17T23:41:04.394Z,38.73
2019-05-17T23:43:39.147Z,40.33
2019-05-17T23:46:13.918Z,41.18
2019-05-17T23:48:48.731Z,39.98
2019-05-17T23:51:23.650Z,39.60
2019-05-17T23:53:58.464Z,39.95
2019-05-17T23:56:33.227Z,39.08
2019-05-17T23:59:09.032Z,39.25
